createdAt,value
2019-04-07T00:02:09.545Z,76.10
2019-04-07T00:04:38.621Z,76.30
2019-04-07T00:07:08.084Z,76.80
2019-04-07T00:09:37.155Z,77.70
2019-04-07T00:12:06.082Z,78.40
2019-04-07T00:14:34.845Z,79.00
2019-04-07T00:17:03.257Z,79.50
2019-04-07T00:19:32.258Z,79.30
2019-04-07T00:22:01.017Z,79.20
2019-04-07T00:24:29.687Z,78.80
2019-04-07T00:26:58.346Z,78.30
2019-04-07T00:29:27.662Z,78.80
2019-04-07T00:31:56.447Z,78.60
2019-04-07T00:34:24.869Z,78.70
2019-04-07T00:36:53.650Z,79.90
2019-04-07T00:39:22.414Z,80.20
2019-04-07T00:41:50.883Z,79.70
2019-04-07T00:44:19.874Z,80.20
2019-04-07T00:46:48.712Z,80.80
2019-04-07T00:49:17.239Z,81.30
2019-04-07T00:51:46.433Z,81.70
2019-04-07T00:54:15.190Z,82.00
2019-04-07T00:56:43.948Z,82.60
2019-04-07T00:59:13.212Z,83.00
2019-04-07T01:01:41.697Z,83.10
2019-04-07T01:04:11.096Z,83.10
2019-04-07T01:06:39.640Z,83.30
2019-04-07T01:09:09.769Z,83.20
2019-04-07T01:11:38.490Z,83.40
2019-04-07T01:14:07.045Z,83.60
2019-04-07T01:16:35.569Z,83.70
2019-04-07T01:19:04.575Z,83.60
2019-04-07T01:21:33.147Z,83.70
2019-04-07T01:24:02.138Z,84.00
2019-04-07T01:26:30.749Z,84.50
2019-04-07T01:28:59.466Z,84.50
2019-04-07T01:31:28.524Z,84.50
2019-04-07T01:33:57.155Z,84.80
2019-04-07T01:36:26.471Z,85.00
2019-04-07T01:38:55.273Z,85.50
2019-04-07T01:41:31.668Z,85.70
2019-04-07T01:44:05.009Z,85.70
2019-04-07T01:46:47.117Z,85.70
2019-04-07T01:49:29.142Z,85.80
2019-04-07T01:52:02.957Z,85.90
2019-04-07T01:54:39.547Z,86.00
2019-04-07T01:57:21.733Z,86.00
2019-04-07T01:59:58.187Z,86.10
2019-04-07T02:02:31.176Z,86.20
2019-04-07T02:05:01.302Z,86.60
2019-04-07T02:07:50.072Z,87.10
2019-04-07T02:10:20.922Z,87.20
2019-04-07T02:12:51.968Z,87.10
2019-04-07T02:15:25.263Z,87.20
2019-04-07T02:18:01.005Z,87.60
2019-04-07T02:20:59.274Z,88.40
2019-04-07T02:23:29.336Z,89.90
2019-04-07T02:26:02.424Z,90.10
2019-04-07T02:28:49.516Z,89.90
2019-04-07T02:31:35.852Z,90.00
2019-04-07T02:34:07.119Z,90.10
2019-04-07T02:36:52.694Z,89.70
2019-04-07T02:39:25.521Z,89.50
2019-04-07T02:42:02.439Z,89.70
2019-04-07T02:44:35.349Z,89.50
2019-04-07T02:47:11.877Z,89.60
2019-04-07T02:49:57.601Z,89.60
2019-04-07T02:52:37.061Z,89.70
2019-04-07T02:55:22.333Z,90.00
2019-04-07T02:57:56.143Z,89.90
2019-04-07T03:00:36.435Z,90.00
2019-04-07T03:03:06.962Z,89.90
2019-04-07T03:05:37.381Z,89.90
2019-04-07T03:08:10.435Z,90.10
2019-04-07T03:10:53.434Z,90.10
2019-04-07T03:13:30.294Z,90.00
2019-04-07T03:16:12.584Z,90.30
2019-04-07T03:18:42.906Z,90.10
2019-04-07T03:21:22.597Z,90.00
2019-04-07T03:23:53.294Z,90.10
2019-04-07T03:26:32.485Z,90.10
2019-04-07T03:29:08.633Z,90.20
2019-04-07T03:31:49.106Z,90.40
2019-04-07T03:34:31.338Z,90.60
2019-04-07T03:37:30.301Z,90.40
2019-04-07T03:39:35.122Z,90.20
2019-04-07T03:42:14.556Z,90.00
2019-04-07T03:44:56.816Z,89.90
2019-04-07T03:47:26.862Z,89.80
2019-04-07T03:50:10.175Z,89.30
2019-04-07T03:52:46.932Z,88.80
2019-04-07T03:55:17.193Z,88.60
2019-04-07T03:57:47.868Z,88.20
2019-04-07T04:01:10.172Z,87.70
2019-04-07T04:03:59.149Z,87.20
2019-04-07T04:06:46.029Z,86.70
2019-04-07T04:09:32.544Z,86.60
2019-04-07T04:12:11.482Z,86.50
2019-04-07T04:14:41.856Z,86.70
2019-04-07T04:17:30.623Z,86.40
2019-04-07T04:19:59.220Z,86.30
2019-04-07T04:22:28.985Z,86.30
2019-04-07T04:24:57.810Z,86.40
2019-04-07T04:27:26.286Z,86.50
2019-04-07T04:29:55.242Z,86.80
2019-04-07T04:32:25.313Z,87.50
2019-04-07T04:34:54.686Z,88.60
2019-04-07T04:37:36.184Z,88.40
2019-04-07T04:39:54.165Z,88.50
2019-04-07T04:42:22.889Z,88.50
2019-04-07T04:44:52.182Z,88.50
2019-04-07T04:47:20.926Z,88.80
2019-04-07T04:49:50.282Z,89.30
2019-04-07T04:52:18.790Z,89.30
2019-04-07T04:54:47.521Z,89.50
2019-04-07T04:57:16.360Z,89.40
2019-04-07T04:59:44.771Z,89.20
2019-04-07T05:02:13.607Z,89.20
2019-04-07T05:04:42.066Z,89.40
2019-04-07T05:07:11.218Z,89.60
2019-04-07T05:09:46.269Z,89.90
2019-04-07T05:12:10.174Z,89.60
2019-04-07T05:14:38.827Z,89.30
2019-04-07T05:17:07.370Z,88.90
2019-04-07T05:19:35.867Z,88.60
2019-04-07T05:22:05.009Z,88.40
2019-04-07T05:24:35.060Z,88.30
2019-04-07T05:27:03.676Z,88.40
2019-04-07T05:29:32.503Z,88.40
2019-04-07T05:32:01.548Z,88.60
2019-04-07T05:34:30.133Z,88.80
2019-04-07T05:36:58.770Z,89.00
2019-04-07T05:39:27.323Z,88.90
2019-04-07T05:41:55.777Z,88.10
2019-04-07T05:44:24.467Z,87.50
2019-04-07T05:46:53.734Z,87.80
2019-04-07T05:49:24.082Z,87.10
2019-04-07T05:51:52.380Z,86.90
2019-04-07T05:54:22.375Z,86.40
2019-04-07T05:56:51.469Z,85.40
2019-04-07T05:59:21.046Z,85.20
2019-04-07T06:01:51.637Z,84.80
2019-04-07T06:04:20.645Z,84.10
2019-04-07T06:06:52.847Z,83.80
2019-04-07T06:09:20.752Z,83.30
2019-04-07T06:11:49.760Z,83.10
2019-04-07T06:14:19.224Z,82.80
2019-04-07T06:16:52.517Z,82.60
2019-04-07T06:19:18.290Z,82.00
2019-04-07T06:21:48.843Z,81.60
2019-04-07T06:24:18.027Z,80.90
2019-04-07T06:26:49.664Z,80.40
2019-04-07T06:29:17.055Z,80.40
2019-04-07T06:31:45.480Z,80.40
2019-04-07T06:34:13.889Z,79.60
2019-04-07T06:36:43.125Z,79.40
2019-04-07T06:39:13.551Z,78.90
2019-04-07T06:41:42.217Z,78.40
2019-04-07T06:44:13.742Z,78.30
2019-04-07T06:46:43.450Z,78.30
2019-04-07T06:49:19.679Z,78.30
2019-04-07T06:51:52.832Z,77.70
2019-04-07T06:54:32.058Z,77.30
2019-04-07T06:57:18.514Z,75.90
2019-04-07T07:00:01.058Z,74.60
2019-04-07T07:02:34.121Z,74.30
2019-04-07T07:05:23.533Z,73.80
2019-04-07T07:08:10.160Z,72.70
2019-04-07T07:10:41.837Z,71.20
2019-04-07T07:13:33.701Z,71.10
2019-04-07T07:16:15.612Z,70.70
2019-04-07T07:18:53.880Z,69.10
2019-04-07T07:21:29.575Z,68.60
2019-04-07T07:23:58.989Z,68.10
2019-04-07T07:26:28.277Z,67.60
2019-04-07T07:28:57.548Z,65.90
2019-04-07T07:31:26.595Z,65.00
2019-04-07T07:33:56.081Z,64.10
2019-04-07T07:36:36.126Z,64.00
2019-04-07T07:39:10.218Z,62.70
2019-04-07T07:41:37.807Z,61.70
2019-04-07T07:44:07.823Z,61.30
2019-04-07T07:46:36.468Z,61.70
2019-04-07T07:49:05.067Z,61.40
2019-04-07T07:51:33.489Z,61.20
2019-04-07T07:54:02.143Z,60.90
2019-04-07T07:56:31.247Z,59.50
2019-04-07T07:59:01.490Z,57.20
2019-04-07T08:01:29.970Z,52.50
2019-04-07T08:03:58.652Z,49.60
2019-04-07T08:06:27.084Z,46.70
2019-04-07T08:09:07.422Z,43.00
2019-04-07T08:11:25.721Z,41.00
2019-04-07T08:13:55.306Z,36.70
2019-04-07T08:16:24.106Z,32.60
2019-04-07T08:18:52.654Z,30.00
2019-04-07T08:21:21.069Z,30.10
2019-04-07T08:23:49.719Z,30.10
2019-04-07T08:26:18.323Z,30.80
2019-04-07T08:28:46.819Z,33.60
2019-04-07T08:31:17.722Z,34.00
2019-04-07T08:33:45.425Z,35.00
2019-04-07T08:36:14.963Z,33.10
2019-04-07T08:38:43.514Z,30.30
2019-04-07T08:41:14.260Z,28.20
2019-04-07T08:43:42.400Z,27.30
2019-04-07T08:46:11.036Z,28.80
2019-04-07T08:48:40.176Z,28.50
2019-04-07T08:51:08.656Z,29.40
2019-04-07T08:53:37.720Z,29.20
2019-04-07T08:56:08.662Z,30.70
2019-04-07T08:58:38.892Z,29.80
2019-04-07T09:01:07.524Z,29.80
2019-04-07T09:03:36.186Z,30.40
2019-04-07T09:06:04.811Z,28.50
2019-04-07T09:08:36.761Z,25.20
2019-04-07T09:11:14.623Z,24.90
2019-04-07T09:13:45.100Z,21.70
2019-04-07T09:16:27.982Z,18.60
2019-04-07T09:19:14.977Z,14.80
2019-04-07T09:21:50.396Z,12.20
2019-04-07T09:24:36.119Z,8.50
2019-04-07T09:27:23.888Z,7.00
2019-04-07T09:29:58.248Z,7.80
2019-04-07T09:32:43.881Z,7.40
2019-04-07T09:35:30.910Z,7.70
2019-04-07T09:38:01.976Z,9.40
2019-04-07T09:40:34.904Z,10.00
2019-04-07T09:43:05.439Z,8.20
2019-04-07T09:45:38.527Z,7.30
2019-04-07T09:48:10.047Z,6.40
2019-04-07T09:50:56.416Z,7.50
2019-04-07T09:53:36.009Z,7.80
2019-04-07T09:56:18.399Z,8.60
2019-04-07T09:59:03.617Z,9.20
2019-04-07T10:01:36.700Z,11.20
2019-04-07T10:04:07.695Z,12.70
2019-04-07T10:06:54.060Z,14.20
2019-04-07T10:09:36.814Z,16.00
2019-04-07T10:12:15.950Z,17.40
2019-04-07T10:14:52.116Z,18.30
2019-04-07T10:17:28.912Z,20.00
2019-04-07T10:20:17.950Z,21.00
2019-04-07T10:22:49.148Z,22.50
2019-04-07T10:25:27.680Z,22.80
2019-04-07T10:27:57.018Z,24.30
2019-04-07T10:30:43.755Z,25.50
2019-04-07T10:33:20.193Z,25.50
2019-04-07T10:36:07.770Z,25.50
2019-04-07T10:38:48.159Z,25.80
2019-04-07T10:41:34.692Z,26.70
2019-04-07T10:44:04.980Z,26.60
2019-04-07T10:46:40.921Z,24.50
2019-04-07T10:49:16.988Z,23.50
2019-04-07T10:51:47.706Z,22.70
2019-04-07T10:54:17.917Z,21.00
2019-04-07T10:56:51.735Z,18.90
2019-04-07T10:59:25.611Z,17.50
2019-04-07T11:01:58.689Z,16.70
2019-04-07T11:04:35.091Z,16.30
2019-04-07T11:07:14.504Z,15.40
2019-04-07T11:09:48.074Z,14.80
2019-04-07T11:12:34.652Z,15.20
2019-04-07T11:15:05.461Z,14.80
2019-04-07T11:17:35.608Z,14.60
2019-04-07T11:20:11.618Z,14.30
2019-04-07T11:22:54.192Z,14.50
2019-04-07T11:25:27.385Z,13.40
2019-04-07T11:27:58.262Z,11.50
2019-04-07T11:30:43.810Z,12.40
2019-04-07T11:33:20.177Z,14.10
2019-04-07T11:35:57.430Z,15.80
2019-04-07T11:38:27.777Z,16.60
2019-04-07T11:41:14.335Z,14.50
2019-04-07T11:43:47.950Z,14.90
2019-04-07T11:46:24.358Z,15.00
2019-04-07T11:49:13.486Z,11.50
2019-04-07T11:51:46.745Z,10.80
2019-04-07T11:54:18.077Z,11.20
2019-04-07T11:56:51.404Z,11.90
2019-04-07T11:59:37.795Z,12.30
2019-04-07T12:02:24.520Z,13.00
2019-04-07T12:04:55.345Z,11.60
2019-04-07T12:07:33.400Z,8.80
2019-04-07T12:10:14.163Z,8.40
2019-04-07T12:12:47.298Z,6.70
2019-04-07T12:15:34.734Z,4.30
2019-04-07T12:18:17.932Z,3.60
2019-04-07T12:20:48.521Z,4.40
2019-04-07T12:23:23.336Z,5.00
2019-04-07T12:25:53.079Z,5.60
2019-04-07T12:28:23.166Z,2.30
2019-04-07T12:30:53.230Z,1.00
2019-04-07T12:33:26.600Z,1.00
2019-04-07T12:36:12.985Z,1.00
2019-04-07T12:38:44.639Z,1.00
2019-04-07T12:41:22.209Z,1.00
2019-04-07T12:43:56.202Z,1.00
2019-04-07T12:46:26.351Z,1.00
2019-04-07T12:48:59.731Z,1.00
2019-04-07T12:51:30.724Z,1.00
2019-04-07T12:54:17.840Z,1.00
2019-04-07T12:56:48.729Z,1.00
2019-04-07T12:59:37.606Z,1.00
2019-04-07T13:02:09.001Z,1.00
2019-04-07T13:04:44.937Z,1.00
2019-04-07T13:07:19.242Z,1.00
2019-04-07T13:09:56.139Z,1.00
2019-04-07T13:12:29.012Z,1.00
2019-04-07T13:14:59.120Z,1.00
2019-04-07T13:17:48.400Z,1.00
2019-04-07T13:20:28.558Z,1.00
2019-04-07T13:23:04.923Z,1.00
2019-04-07T13:25:38.581Z,1.00
2019-04-07T13:28:15.247Z,1.00
2019-04-07T13:31:02.653Z,1.00
2019-04-07T13:33:48.755Z,1.00
2019-04-07T13:36:38.314Z,1.00
2019-04-07T13:39:10.102Z,1.00
2019-04-07T13:41:44.942Z,1.00
2019-04-07T13:44:20.653Z,1.00
2019-04-07T13:47:08.573Z,1.00
2019-04-07T13:49:48.018Z,1.00
2019-04-07T13:52:30.077Z,1.00
2019-04-07T13:55:04.616Z,1.00
2019-04-07T13:57:44.116Z,1.00
2019-04-07T14:00:21.722Z,1.00
2019-04-07T14:03:06.998Z,1.00
2019-04-07T14:05:53.544Z,1.00
2019-04-07T14:08:31.064Z,1.00
2019-04-07T14:11:18.700Z,1.00
2019-04-07T14:13:49.080Z,1.00
2019-04-07T14:16:19.731Z,1.00
2019-04-07T14:18:53.105Z,1.00
2019-04-07T14:21:24.651Z,1.00
2019-04-07T14:24:03.771Z,1.00
2019-04-07T14:26:37.835Z,1.00
2019-04-07T14:29:14.132Z,1.00
2019-04-07T14:32:00.921Z,1.00
2019-04-07T14:34:31.598Z,1.00
2019-04-07T14:37:03.228Z,1.00
2019-04-07T14:39:36.982Z,1.00
2019-04-07T14:42:15.869Z,1.00
2019-04-07T14:44:46.798Z,1.00
2019-04-07T14:47:19.879Z,1.00
2019-04-07T14:49:58.678Z,1.00
2019-04-07T14:52:38.316Z,1.00
2019-04-07T14:55:28.855Z,1.00
2019-04-07T14:57:57.127Z,1.00
2019-04-07T15:00:43.988Z,1.00
2019-04-07T15:03:12.463Z,1.00
2019-04-07T15:05:48.388Z,1.00
2019-04-07T15:08:18.608Z,1.00
2019-04-07T15:10:51.671Z,1.00
2019-04-07T15:13:25.777Z,1.00
2019-04-07T15:15:52.674Z,1.90
2019-04-07T15:18:21.556Z,2.30
2019-04-07T15:20:50.565Z,3.60
2019-04-07T15:23:19.769Z,5.10
2019-04-07T15:25:48.294Z,5.40
2019-04-07T15:28:17.481Z,5.00
2019-04-07T15:30:47.985Z,6.10
2019-04-07T15:33:16.118Z,6.90
2019-04-07T15:35:47.287Z,7.10
2019-04-07T15:38:15.412Z,7.30
2019-04-07T15:40:44.889Z,8.30
2019-04-07T15:43:13.621Z,9.70
2019-04-07T15:45:44.406Z,10.00
2019-04-07T15:48:12.538Z,9.80
2019-04-07T15:50:41.674Z,9.90
2019-04-07T15:53:13.476Z,10.90
2019-04-07T15:55:49.698Z,11.90
2019-04-07T15:58:11.730Z,12.40
2019-04-07T16:00:40.872Z,12.80
2019-04-07T16:03:12.701Z,13.30
2019-04-07T16:05:43.439Z,13.40
2019-04-07T16:08:11.593Z,13.10
2019-04-07T16:10:41.327Z,13.10
2019-04-07T16:13:10.902Z,12.70
2019-04-07T16:15:42.788Z,13.30
2019-04-07T16:18:10.523Z,13.80
2019-04-07T16:20:40.484Z,14.20
2019-04-07T16:23:10.212Z,14.10
2019-04-07T16:25:40.288Z,14.50
2019-04-07T16:28:13.134Z,15.10
2019-04-07T16:30:40.652Z,15.00
2019-04-07T16:33:10.006Z,14.80
2019-04-07T16:35:38.522Z,14.50
2019-04-07T16:38:07.361Z,14.60
2019-04-07T16:40:35.778Z,14.50
2019-04-07T16:43:11.639Z,15.10
2019-04-07T16:45:36.838Z,15.60
2019-04-07T16:48:06.716Z,16.10
2019-04-07T16:50:35.407Z,16.20
2019-04-07T16:53:06.579Z,16.40
2019-04-07T16:55:40.650Z,16.20
2019-04-07T16:58:10.235Z,16.50
2019-04-07T17:00:39.746Z,17.30
2019-04-07T17:03:09.885Z,17.90
2019-04-07T17:05:39.559Z,18.20
2019-04-07T17:08:08.616Z,18.90
2019-04-07T17:10:37.130Z,19.60
2019-04-07T17:13:17.034Z,20.30
2019-04-07T17:15:39.506Z,19.70
2019-04-07T17:18:08.935Z,20.70
2019-04-07T17:20:38.274Z,21.20
2019-04-07T17:23:07.113Z,21.70
2019-04-07T17:25:35.911Z,21.80
2019-04-07T17:28:05.328Z,22.10
2019-04-07T17:30:35.417Z,22.10
2019-04-07T17:33:05.536Z,22.20
2019-04-07T17:35:35.858Z,22.40
2019-04-07T17:38:06.861Z,22.90
2019-04-07T17:40:37.661Z,23.00
2019-04-07T17:43:29.540Z,23.20
2019-04-07T17:46:12.702Z,24.00
2019-04-07T17:48:59.793Z,23.90
2019-04-07T17:51:36.319Z,24.50
2019-04-07T17:54:07.901Z,24.60
2019-04-07T17:56:40.603Z,24.70
2019-04-07T17:59:14.181Z,25.80
2019-04-07T18:01:41.586Z,26.00
2019-04-07T18:04:20.856Z,26.70
2019-04-07T18:06:57.445Z,27.20
2019-04-07T18:09:42.401Z,27.50
2019-04-07T18:12:28.443Z,27.60
2019-04-07T18:15:03.245Z,28.20
2019-04-07T18:17:36.564Z,28.40
2019-04-07T18:20:21.598Z,28.30
2019-04-07T18:23:04.418Z,28.40
2019-04-07T18:25:51.861Z,28.70
2019-04-07T18:28:25.628Z,28.70
2019-04-07T18:30:53.830Z,29.20
2019-04-07T18:33:30.409Z,29.10
2019-04-07T18:36:03.198Z,29.30
2019-04-07T18:38:33.095Z,29.60
2019-04-07T18:41:08.124Z,29.90
2019-04-07T18:43:50.595Z,30.40
2019-04-07T18:46:28.869Z,30.40
2019-04-07T18:49:15.820Z,31.00
2019-04-07T18:52:01.551Z,30.50
2019-04-07T18:54:34.158Z,31.00
2019-04-07T18:57:14.036Z,31.50
2019-04-07T19:00:03.881Z,32.20
2019-04-07T19:02:31.942Z,32.50
2019-04-07T19:05:20.221Z,33.20
2019-04-07T19:08:02.705Z,33.50
2019-04-07T19:10:33.502Z,33.80
2019-04-07T19:13:24.703Z,34.10
2019-04-07T19:15:51.380Z,34.10
2019-04-07T19:18:39.975Z,34.60
2019-04-07T19:21:25.298Z,35.10
2019-04-07T19:23:58.582Z,35.70
2019-04-07T19:26:29.964Z,36.20
2019-04-07T19:29:09.203Z,37.20
2019-04-07T19:31:51.098Z,36.60
2019-04-07T19:34:37.873Z,37.00
2019-04-07T19:37:08.186Z,37.30
2019-04-07T19:39:38.394Z,38.00
2019-04-07T19:42:14.475Z,38.80
2019-04-07T19:44:51.086Z,40.20
2019-04-07T19:47:36.411Z,41.80
2019-04-07T19:50:22.687Z,44.40
2019-04-07T19:52:58.347Z,47.30
2019-04-07T19:55:31.223Z,49.80
2019-04-07T19:58:02.726Z,52.80
2019-04-07T20:00:48.361Z,55.50
2019-04-07T20:03:17.923Z,57.90
2019-04-07T20:06:04.858Z,60.40
2019-04-07T20:08:46.803Z,62.60
2019-04-07T20:11:30.438Z,63.90
2019-04-07T20:14:12.515Z,65.10
2019-04-07T20:16:46.117Z,66.20
2019-04-07T20:19:19.011Z,68.00
2019-04-07T20:22:05.636Z,68.80
2019-04-07T20:24:52.954Z,69.40
2019-04-07T20:27:32.353Z,70.20
2019-04-07T20:30:19.048Z,71.00
2019-04-07T22:34:38.218Z,79.80
2019-04-07T22:37:06.789Z,81.30
2019-04-07T22:39:35.237Z,82.70
2019-04-07T22:42:03.720Z,82.40
2019-04-07T22:44:32.145Z,83.00
2019-04-07T22:47:00.914Z,84.40
2019-04-07T22:49:31.836Z,84.60
2019-04-07T22:51:59.428Z,85.00
2019-04-07T22:54:30.713Z,85.30
2019-04-07T22:56:58.257Z,85.90
2019-04-07T22:59:26.686Z,86.00
2019-04-07T23:01:55.690Z,86.60
2019-04-07T23:04:24.489Z,87.60
2019-04-07T23:06:52.912Z,87.60
2019-04-07T23:09:21.851Z,87.50
2019-04-07T23:11:50.421Z,87.00
2019-04-07T23:14:19.906Z,87.00
2019-04-07T23:16:48.564Z,87.10
2019-04-07T23:19:17.039Z,87.40
2019-04-07T23:21:45.907Z,88.10
2019-04-07T23:24:15.011Z,88.80
2019-04-07T23:26:43.553Z,89.40
2019-04-07T23:29:12.157Z,89.90
2019-04-07T23:31:40.637Z,89.70
2019-04-07T23:34:09.297Z,90.00
2019-04-07T23:36:38.256Z,90.40
2019-04-07T23:39:07.433Z,90.40
2019-04-07T23:41:36.114Z,90.30
2019-04-07T23:44:05.855Z,90.10
2019-04-07T23:46:34.690Z,90.10
2019-04-07T23:49:03.648Z,90.00
2019-04-07T23:51:32.418Z,90.20
2019-04-07T23:54:10.729Z,90.30
2019-04-07T23:56:41.547Z,90.30
2019-04-07T23:59:10.544Z,90.50
